Time;durP1;ratioP1;P1;durP2;ratioP2;P2;SDS_P1;SDS_P2;PMS_P1;PMS_P2;Temp;Humidity;BMP_temperature;BMP_pressure;BME280_temperature;BME280_humidity;BME280_pressure;Samples;Min_cycle;Max_cycle;Signal;HPM_P1;HPM_P2
2023/09/05 00:01:09;;;;;;;;;;;;;;;20.98;0.00;60892.56;6090932;22;19938;-92
2023/09/05 00:03:48;;;;;;;;;;;;;;;20.95;0.00;60892.56;6091900;22;19907;-92
2023/09/05 00:06:26;;;;;;;;;;;;;;;20.93;0.00;60892.56;6091586;22;20242;-93
2023/09/05 00:09:05;;;;;;;;;;;;;;;20.90;0.00;81616.88;6091375;22;20372;-93
2023/09/05 00:11:45;;;;;;;;;;;;;;;20.87;0.00;60892.56;6091033;22;19907;-92
2023/09/05 00:14:24;;;;;;;;;;;;;;;-145.06;0.00;60892.56;6091332;22;19907;-92
2023/09/05 00:17:03;;;;;;;;;;;;;;;-145.06;0.00;60892.56;6091545;22;20329;-92
2023/09/05 00:19:42;;;;;;;;;;;;;;;20.83;0.00;60892.56;6091339;22;19907;-94
2023/09/05 00:22:21;;;;;;;;;;;;;;;20.76;0.00;60892.56;6090934;22;19911;-93
2023/09/05 00:25:00;;;;;;;;;;;;;;;-145.06;0.00;60892.56;6094375;22;19906;-92
2023/09/05 00:27:40;;;;;;;;;;;;;;;-145.06;0.00;60892.56;6091698;22;19911;-92
2023/09/05 00:30:22;;;;;;;;;;;;;;;-145.06;0.00;60892.56;6091636;22;20351;-92
2023/09/05 00:33:01;;;;;;;;;;;;;;;-145.06;0.00;60892.56;6091371;22;20269;-93
2023/09/05 00:35:40;;;;;;;;;;;;;;;-145.06;0.00;60892.56;6091335;22;19906;-93
2023/09/05 00:38:19;;;;;;;;;;;;;;;-145.06;0.00;60892.56;6091238;22;19938;-92
2023/09/05 00:40:58;;;;;;;;;;;;;;;-145.06;0.00;60892.56;6091337;22;19906;-94
2023/09/05 00:43:38;;;;;;;;;;;;;;;-145.06;0.00;60892.56;6091347;22;19977;-91
2023/09/05 00:46:17;;;;;;;;;;;;;;;-145.06;0.00;60892.56;6091256;22;19911;-94
2023/09/05 00:48:57;;;;;;;;;;;;;;;-145.06;0.00;60892.56;6091255;22;19907;-93
2023/09/05 00:51:37;;;;;;;;;;;;;;;-145.06;0.00;60892.56;6091343;22;19907;-93
2023/09/05 00:54:16;;;;;;;;;;;;;;;-145.06;0.00;60892.56;6090810;22;19907;-92
2023/09/05 00:56:55;;;;;;;;;;;;;;;-145.06;0.00;60892.56;6091281;22;19911;-94
2023/09/05 00:59:34;;;;;;;;;;;;;;;-145.06;0.00;60892.56;6091147;22;19907;-93
2023/09/05 01:02:13;;;;;;;;;;;;;;;-145.06;0.00;60892.56;6090690;22;19907;-93
2023/09/05 01:04:52;;;;;;;;;;;;;;;-145.06;0.00;60892.56;6091110;22;19907;-93
2023/09/05 01:07:44;;;;;;;;;;;;;;;-145.06;0.00;60892.56;6091285;22;19911;-93
2023/09/05 01:10:30;;;;;;;;;;;;;;;-145.06;0.00;60892.56;6090879;22;19907;-92
2023/09/05 01:13:09;;;;;;;;;;;;;;;-145.06;0.00;60892.56;6091053;22;19907;-92
2023/09/05 01:15:48;;;;;;;;;;;;;;;-145.06;0.00;60892.56;6090762;22;19946;-92
2023/09/05 01:18:28;;;;;;;;;;;;;;;-145.06;0.00;60892.56;6091283;22;19907;-92
2023/09/05 01:21:16;;;;;;;;;;;;;;;-145.06;0.00;60892.56;6091176;22;20149;-93
2023/09/05 01:24:01;;;;;;;;;;;;;;;-145.06;0.00;60892.56;6091103;22;19907;-92
2023/09/05 01:26:40;;;;;;;;;;;;;;;-145.06;0.00;60892.56;6068531;22;19911;-93
2023/09/05 01:29:29;;;;;;;;;;;;;;;-145.06;0.00;60892.56;6090717;22;19907;-92
2023/09/05 01:32:11;;;;;;;;;;;;;;;-145.06;0.00;60892.56;6090790;22;19970;-91
2023/09/05 01:34:50;;;;;;;;;;;;;;;-145.06;0.00;60892.56;6090339;22;19911;-94
2023/09/05 01:37:29;;;;;;;;;;;;;;;-145.06;0.00;60892.56;6090734;22;19907;-93
2023/09/05 01:40:08;;;;;;;;;;;;;;;-145.06;0.00;60892.56;6090444;22;19907;-93
2023/09/05 01:42:47;;;;;;;;;;;;;;;-145.06;0.00;60892.56;6088578;22;19907;-93
2023/09/05 01:45:26;;;;;;;;;;;;;;;-145.06;0.00;60892.56;6089284;22;19930;-92
2023/09/05 01:48:05;;;;;;;;;;;;;;;-145.06;0.00;60892.56;6090455;22;19911;-93
2023/09/05 01:50:44;;;;;;;;;;;;;;;-145.06;0.00;60892.56;6090580;22;19907;-92
2023/09/05 01:53:31;;;;;;;;;;;;;;;-145.06;0.00;60892.56;6090975;22;19910;-94
2023/09/05 01:56:10;;;;;;;;;;;;;;;-145.06;0.00;60892.56;6090845;22;20226;-91
2023/09/05 01:58:49;;;;;;;;;;;;;;;-145.06;0.00;60892.56;6090751;22;19907;-92
2023/09/05 02:01:30;;;;;;;;;;;;;;;-145.06;0.00;60892.56;6091124;22;19907;-92
2023/09/05 02:04:09;;;;;;;;;;;;;;;-145.06;0.00;60892.56;6090241;22;19907;-94
2023/09/05 02:06:48;;;;;;;;;;;;;;;-145.06;0.00;60892.56;6090659;22;19911;-93
2023/09/05 02:09:27;;;;;;;;;;;;;;;-145.06;0.00;60892.56;6090774;22;19907;-94
2023/09/05 02:12:07;;;;;;;;;;;;;;;-145.06;0.00;60892.56;6090386;22;19933;-94
2023/09/05 02:14:47;;;;;;;;;;;;;;;-145.06;0.00;60892.56;6091073;22;19911;-94
2023/09/05 02:17:34;;;;;;;;;;;;;;;-145.06;0.00;60892.56;6090747;22;19938;-92
2023/09/05 02:20:13;;;;;;;;;;;;;;;-145.06;0.00;60892.56;6090247;22;19911;-92
2023/09/05 02:22:52;;;;;;;;;;;;;;;-145.06;0.00;60892.56;6090559;22;19907;-93
2023/09/05 02:25:31;;;;;;;;;;;;;;;-145.06;0.00;60892.56;6091441;22;19911;-93
2023/09/05 02:28:10;;;;;;;;;;;;;;;-145.06;0.00;60892.56;6092880;22;19907;-93
2023/09/05 02:30:50;;;;;;;;;;;;;;;-145.06;0.00;60892.56;6092348;22;20386;-92
2023/09/05 02:33:29;;;;;;;;;;;;;;;-145.06;0.00;60892.56;6092744;22;19942;-92
2023/09/05 02:36:15;;;;;;;;;;;;;;;-145.06;0.00;60892.56;6092597;22;20245;-94
2023/09/05 02:38:54;;;;;;;;;;;;;;;-145.06;0.00;60892.56;6092513;22;20329;-94
2023/09/05 02:41:36;;;;;;;;;;;;;;;-145.06;0.00;60892.56;6092666;22;20268;-92
2023/09/05 02:44:15;;;;;;;;;;;;;;;-145.06;0.00;60892.56;6092822;22;19907;-93
2023/09/05 02:46:54;;;;;;;;;;;;;;;-145.06;0.00;60892.56;6093132;22;19911;-94
2023/09/05 02:49:35;;;;;;;;;;;;;;;20.10;0.00;60892.56;6092884;22;19946;-93
2023/09/05 02:52:14;;;;;;;;;;;;;;;-145.06;0.00;60892.56;6091824;22;19906;-92
2023/09/05 02:54:53;;;;;;;;;;;;;;;-145.06;0.00;60892.56;6092421;22;19906;-94
2023/09/05 02:57:32;;;;;;;;;;;;;;;-145.06;0.00;60892.56;6092113;22;19934;-93
2023/09/05 03:00:11;;;;;;;;;;;;;;;-145.06;0.00;60892.56;6091129;22;19907;-92
2023/09/05 03:02:52;;;;;;;;;;;;;;;-145.06;0.00;60892.56;6091851;22;19911;-93
2023/09/05 03:05:31;;;;;;;;;;;;;;;19.70;0.00;60892.56;6091172;22;19911;-92
2023/09/05 03:08:10;;;;;;;;;;;;;;;-145.06;0.00;60892.56;6091894;22;20007;-93
2023/09/05 03:10:52;;;;;;;;;;;;;;;-145.06;0.00;60892.56;6091719;22;19907;-94
2023/09/05 03:13:31;;;;;;;;;;;;;;;-145.06;0.00;60892.56;6091752;22;19911;-93
2023/09/05 03:16:12;;;;;;;;;;;;;;;-145.06;0.00;60892.56;6091808;22;19910;-93
2023/09/05 03:18:51;;;;;;;;;;;;;;;-145.06;0.00;60892.56;6091621;22;19910;-92
2023/09/05 03:21:30;;;;;;;;;;;;;;;-145.06;0.00;60892.56;6103307;22;20019;-94
2023/09/05 03:24:09;;;;;;;;;;;;;;;-145.06;0.00;60892.56;6092018;22;19907;-93
2023/09/05 03:26:48;;;;;;;;;;;;;;;-145.06;0.00;60892.56;6091847;22;19911;-94
2023/09/05 03:29:27;;;;;;;;;;;;;;;-145.06;0.00;60892.56;6092090;22;19907;-93
2023/09/05 03:32:06;;;;;;;;;;;;;;;-145.06;0.00;60892.56;6091851;22;19910;-93
2023/09/05 03:34:48;;;;;;;;;;;;;;;-145.06;0.00;60892.56;6093136;22;20218;-94
2023/09/05 03:37:28;;;;;;;;;;;;;;;-145.06;0.00;60892.56;6091516;22;19907;-93
2023/09/05 03:40:07;;;;;;;;;;;;;;;-145.06;0.00;60892.56;6091571;22;20309;-94
2023/09/05 03:42:47;;;;;;;;;;;;;;;-145.06;0.00;60892.56;6091507;22;20337;-92
2023/09/05 03:45:27;;;;;;;;;;;;;;;-145.06;0.00;60892.56;6092066;22;19907;-94
2023/09/05 03:48:06;;;;;;;;;;;;;;;-145.06;0.00;60892.56;6092012;22;19907;-92
2023/09/05 03:50:45;;;;;;;;;;;;;;;-145.06;0.00;60892.56;6091946;22;19907;-93
2023/09/05 03:53:24;;;;;;;;;;;;;;;-145.06;0.00;60892.56;6092996;22;19946;-92
2023/09/05 03:56:03;;;;;;;;;;;;;;;-145.06;0.00;60892.56;6091844;22;19974;-92
2023/09/05 03:58:42;;;;;;;;;;;;;;;-145.06;0.00;60892.56;6091856;22;19911;-93
2023/09/05 04:01:21;;;;;;;;;;;;;;;-145.06;0.00;60892.56;6091257;22;19907;-91
2023/09/05 04:04:00;;;;;;;;;;;;;;;-145.06;0.00;60892.56;6093928;22;19940;-93
2023/09/05 04:06:39;;;;;;;;;;;;;;;-145.06;0.00;60892.56;6094662;22;19933;-91
2023/09/05 04:09:19;;;;;;;;;;;;;;;-145.06;0.00;60892.56;6090170;22;19937;-91
2023/09/05 04:11:58;;;;;;;;;;;;;;;-145.06;0.00;60892.56;6089046;22;19907;-93
2023/09/05 04:14:37;;;;;;;;;;;;;;;-145.06;0.00;60892.56;6090534;22;19910;-92
2023/09/05 04:17:15;;;;;;;;;;;;;;;-145.06;0.00;60892.56;6089665;22;20266;-92
2023/09/05 04:19:57;;;;;;;;;;;;;;;-145.06;0.00;60892.56;6099260;22;20521;-91
2023/09/05 04:22:36;;;;;;;;;;;;;;;-145.06;0.00;60892.56;6092011;22;19907;-92
2023/09/05 04:25:17;;;;;;;;;;;;;;;-145.06;0.00;60892.56;6094259;22;19985;-93
2023/09/05 04:27:56;;;;;;;;;;;;;;;-145.06;0.00;60892.56;6093989;22;19910;-92
2023/09/05 04:30:35;;;;;;;;;;;;;;;-145.06;0.00;60892.56;6100184;22;20317;-92
2023/09/05 04:33:14;;;;;;;;;;;;;;;-145.06;0.00;60892.56;6084373;22;19911;-92
2023/09/05 04:35:53;;;;;;;;;;;;;;;-145.06;0.00;60892.56;6090367;22;19911;-91
2023/09/05 04:38:32;;;;;;;;;;;;;;;-145.06;0.00;60892.56;6087789;22;19942;-91
2023/09/05 04:41:11;;;;;;;;;;;;;;;-145.06;0.00;60892.56;6088834;22;20324;-93
2023/09/05 04:43:53;;;;;;;;;;;;;;;-145.06;0.00;60892.56;6088258;22;19907;-94
2023/09/05 04:46:39;;;;;;;;;;;;;;;-145.06;0.00;60892.56;6094948;22;19915;-93
2023/09/05 04:49:18;;;;;;;;;;;;;;;-145.06;0.00;60892.56;6093645;22;19911;-93
2023/09/05 04:51:57;;;;;;;;;;;;;;;-145.06;0.00;60892.56;6092742;22;19907;-92
2023/09/05 04:54:37;;;;;;;;;;;;;;;-145.06;0.00;60892.56;6094123;22;19926;-93
2023/09/05 04:57:16;;;;;;;;;;;;;;;-145.06;0.00;60892.56;6093575;22;19931;-92
2023/09/05 04:59:59;;;;;;;;;;;;;;;-145.06;0.00;60892.56;6093772;22;19911;-93
2023/09/05 05:02:37;;;;;;;;;;;;;;;-145.06;0.00;60892.56;6094547;22;19907;-92
2023/09/05 05:05:17;;;;;;;;;;;;;;;-145.06;0.00;60892.56;6094367;22;19938;-92
2023/09/05 05:07:56;;;;;;;;;;;;;;;-145.06;0.00;60892.56;6094564;22;19994;-92
2023/09/05 05:10:37;;;;;;;;;;;;;;;-145.06;0.00;60892.56;6093934;22;20317;-92
2023/09/05 05:13:16;;;;;;;;;;;;;;;-145.06;0.00;60892.56;6093541;22;19907;-90
2023/09/05 05:15:56;;;;;;;;;;;;;;;-145.06;0.00;60892.56;6093804;22;19907;-92
2023/09/05 05:18:36;;;;;;;;;;;;;;;-145.06;0.00;60892.56;6090648;22;19907;-90
2023/09/05 05:21:14;;;;;;;;;;;;;;;-145.06;0.00;60892.56;6094123;22;19907;-91
2023/09/05 05:23:55;;;;;;;;;;;;;;;-145.06;0.00;60892.56;6094404;22;19938;-91
2023/09/05 05:26:33;;;;;;;;;;;;;;;-145.06;0.00;60892.56;6093271;22;19910;-91
2023/09/05 05:29:12;;;;;;;;;;;;;;;-145.06;0.00;60892.56;6093505;22;19907;-91
2023/09/05 05:31:54;;;;;;;;;;;;;;;-145.06;0.00;60892.56;6094072;22;19935;-91
2023/09/05 05:34:34;;;;;;;;;;;;;;;-145.06;0.00;60892.56;6094157;22;19907;-92
2023/09/05 05:37:12;;;;;;;;;;;;;;;-145.06;0.00;60892.56;6093920;22;19911;-92
2023/09/05 05:39:52;;;;;;;;;;;;;;;18.72;0.00;60892.56;6093982;22;19934;-92
2023/09/05 05:42:31;;;;;;;;;;;;;;;-145.06;0.00;60892.56;6094812;22;19942;-91
2023/09/05 05:45:10;;;;;;;;;;;;;;;-145.06;0.00;60892.56;6094692;22;19906;-91
2023/09/05 05:47:49;;;;;;;;;;;;;;;-145.06;0.00;60892.56;6094835;22;19985;-92
2023/09/05 05:50:28;;;;;;;;;;;;;;;-145.06;0.00;60892.56;6094223;22;19907;-92
2023/09/05 05:53:06;;;;;;;;;;;;;;;-145.06;0.00;60892.56;6094919;22;19907;-92
2023/09/05 05:55:46;;;;;;;;;;;;;;;-145.06;0.00;60892.56;6094334;22;19911;-92
2023/09/05 05:58:25;;;;;;;;;;;;;;;-145.06;0.00;60892.56;6094300;22;20218;-92
2023/09/05 06:01:06;;;;;;;;;;;;;;;-145.06;0.00;60892.56;6094908;22;20003;-92
2023/09/05 06:03:45;;;;;;;;;;;;;;;-145.06;0.00;60892.56;6095995;22;19942;-91
2023/09/05 06:06:24;;;;;;;;;;;;;;;-145.06;0.00;60892.56;6095248;22;19911;-92
2023/09/05 06:09:03;;;;;;;;;;;;;;;-145.06;0.00;60892.56;6095470;22;19977;-91
2023/09/05 06:11:42;;;;;;;;;;;;;;;-145.06;0.00;60892.56;6095829;22;19907;-91
2023/09/05 06:14:21;;;;;;;;;;;;;;;-145.06;0.00;60892.56;6096553;22;19915;-91
2023/09/05 06:17:00;;;;;;;;;;;;;;;-145.06;0.00;60892.56;6095851;22;20230;-93
2023/09/05 06:19:39;;;;;;;;;;;;;;;-145.06;0.00;60892.56;6095977;22;19907;-92
2023/09/05 06:22:18;;;;;;;;;;;;;;;-145.06;0.00;60892.56;6096019;22;20293;-91
2023/09/05 06:24:57;;;;;;;;;;;;;;;-145.06;0.00;60892.56;6094630;22;20306;-92
2023/09/05 06:27:36;;;;;;;;;;;;;;;-145.06;0.00;60892.56;6094615;22;20210;-91
2023/09/05 06:30:15;;;;;;;;;;;;;;;-145.06;0.00;60892.56;6092441;22;20468;-92
2023/09/05 06:32:54;;;;;;;;;;;;;;;-145.06;0.00;60892.56;6092450;22;19934;-93
2023/09/05 06:35:35;;;;;;;;;;;;;;;-145.06;0.00;60892.56;6092665;22;19907;-92
2023/09/05 06:38:14;;;;;;;;;;;;;;;-145.06;0.00;60892.56;6092128;22;19907;-91
2023/09/05 06:40:53;;;;;;;;;;;;;;;-145.06;0.00;60892.56;6092823;22;19931;-92
2023/09/05 06:43:32;;;;;;;;;;;;;;;-145.06;0.00;60892.56;6092503;22;19907;-94
2023/09/05 06:46:11;;;;;;;;;;;;;;;-145.06;0.00;60892.56;6091913;22;19910;-92
2023/09/05 06:48:50;;;;;;;;;;;;;;;-145.06;0.00;60892.56;6092349;22;19911;-91
2023/09/05 06:51:30;;;;;;;;;;;;;;;-145.06;0.00;60892.56;6092183;22;19907;-92
2023/09/05 06:54:09;;;;;;;;;;;;;;;-145.06;0.00;60892.56;6092427;22;20214;-92
2023/09/05 06:56:48;;;;;;;;;;;;;;;-145.06;0.00;60892.56;6092063;22;20329;-93
2023/09/05 06:59:27;;;;;;;;;;;;;;;19.49;0.00;104794.97;6092189;22;19907;-91
2023/09/05 07:02:06;;;;;;;;;;;;;;;19.54;0.00;60892.56;6091993;22;19906;-92
2023/09/05 07:04:45;;;;;;;;;;;;;;;-145.06;0.00;60892.56;6091902;22;19985;-91
2023/09/05 07:07:25;;;;;;;;;;;;;;;-145.06;0.00;60892.56;6091847;22;20313;-92
2023/09/05 07:10:07;;;;;;;;;;;;;;;-145.06;0.00;60892.56;6092241;22;19907;-91
2023/09/05 07:12:46;;;;;;;;;;;;;;;-145.06;0.00;60892.56;6092116;22;19911;-91
2023/09/05 07:15:25;;;;;;;;;;;;;;;-145.06;0.00;60892.56;6092332;22;19906;-92
2023/09/05 07:18:04;;;;;;;;;;;;;;;-145.06;0.00;60892.56;6091909;22;19906;-92
2023/09/05 07:20:44;;;;;;;;;;;;;;;19.90;0.00;60892.56;6092335;22;19990;-90
2023/09/05 07:23:23;;;;;;;;;;;;;;;-145.06;0.00;60892.56;6092111;22;19907;-92
2023/09/05 07:26:05;;;;;;;;;;;;;;;-145.06;0.00;60892.56;6092191;22;19985;-92
2023/09/05 07:28:46;;;;;;;;;;;;;;;-145.06;0.00;60892.56;6092541;22;19907;-92
2023/09/05 07:31:31;;;;;;;;;;;;;;;-145.06;0.00;60892.56;6091874;22;19923;-93
2023/09/05 07:34:10;;;;;;;;;;;;;;;-145.06;0.00;60892.56;6091540;22;19982;-93
2023/09/05 07:36:49;;;;;;;;;;;;;;;-145.06;0.00;60892.56;6092188;22;19906;-92
2023/09/05 07:39:28;;;;;;;;;;;;;;;-145.06;0.00;60892.56;6092364;22;19931;-92
2023/09/05 07:42:07;;;;;;;;;;;;;;;-145.06;0.00;60892.56;6092082;22;19907;-93
2023/09/05 07:44:45;;;;;;;;;;;;;;;-145.06;0.00;60892.56;6092565;22;19910;-92
2023/09/05 07:47:25;;;;;;;;;;;;;;;-145.06;0.00;60892.56;6092629;22;19911;-92
2023/09/05 07:50:04;;;;;;;;;;;;;;;-145.06;0.00;60892.56;6092055;22;19906;-92
2023/09/05 07:52:43;;;;;;;;;;;;;;;-145.06;0.00;60892.56;6092730;22;19907;-91
2023/09/05 07:55:22;;;;;;;;;;;;;;;-145.06;0.00;60892.56;6091851;22;20333;-93
2023/09/05 07:58:01;;;;;;;;;;;;;;;-145.06;0.00;60892.56;6092111;22;19915;-92
2023/09/05 08:00:42;;;;;;;;;;;;;;;-145.06;0.00;60892.56;6091458;22;20309;-91
2023/09/05 08:03:25;;;;;;;;;;;;;;;-145.06;0.00;60892.56;6092430;22;19985;-91
2023/09/05 08:06:04;;;;;;;;;;;;;;;-145.06;0.00;60892.56;6091847;22;19910;-92
2023/09/05 08:08:43;;;;;;;;;;;;;;;-145.06;0.00;60892.56;6091399;22;19907;-92
2023/09/05 08:11:22;;;;;;;;;;;;;;;-145.06;0.00;60892.56;6091671;22;19907;-93
2023/09/05 08:14:01;;;;;;;;;;;;;;;-145.06;0.00;60892.56;6092004;22;19989;-93
2023/09/05 08:16:40;;;;;;;;;;;;;;;-145.06;0.00;60892.56;6092005;22;19907;-93
2023/09/05 08:19:19;;;;;;;;;;;;;;;-145.06;0.00;60892.56;6102552;22;19911;-92
2023/09/05 08:21:58;;;;;;;;;;;;;;;-145.06;0.00;60892.56;6091620;22;20213;-89
2023/09/05 08:24:37;;;;;;;;;;;;;;;-145.06;0.00;60892.56;6092125;22;19907;-92
2023/09/05 08:27:18;;;;;;;;;;;;;;;-145.06;0.00;60892.56;6091995;22;20218;-93
2023/09/05 08:29:57;;;;;;;;;;;;;;;-145.06;0.00;60892.56;6091541;22;19907;-93
2023/09/05 08:32:40;;;;;;;;;;;;;;;-145.06;0.00;60892.56;6092288;22;19907;-92
2023/09/05 08:35:18;;;;;;;;;;;;;;;-145.06;0.00;60892.56;6092060;22;19907;-91
2023/09/05 08:38:02;;;;;;;;;;;;;;;-145.06;0.00;60892.56;6091887;22;19907;-92
2023/09/05 08:40:45;;;;;;;;;;;;;;;-145.06;0.00;60892.56;6091318;22;19986;-93
2023/09/05 08:43:27;;;;;;;;;;;;;;;-145.06;0.00;60892.56;6092253;22;20233;-94
2023/09/05 08:46:06;;;;;;;;;;;;;;;-145.06;0.00;60892.56;6091775;22;19911;-93
2023/09/05 08:48:47;;;;;;;;;;;;;;;-145.06;0.00;60892.56;6091670;22;19910;-93
2023/09/05 08:51:32;;;;;;;;;;;;;;;-145.06;0.00;60892.56;6091428;22;19907;-91
2023/09/05 08:54:12;;;;;;;;;;;;;;;-145.06;0.00;60892.56;6091321;22;19978;-91
2023/09/05 08:56:51;;;;;;;;;;;;;;;23.19;0.00;60892.56;6091879;22;19915;-93
2023/09/05 08:59:31;;;;;;;;;;;;;;;23.24;0.00;60892.56;6091729;22;19907;-93
2023/09/05 09:02:14;;;;;;;;;;;;;;;23.34;0.00;104794.97;6091903;22;19911;-91
2023/09/05 09:04:57;;;;;;;;;;;;;;;23.42;0.00;60892.56;6091337;22;19942;-92
2023/09/05 09:07:36;;;;;;;;;;;;;;;-145.06;0.00;60892.56;6091527;22;19911;-94
2023/09/05 09:10:23;;;;;;;;;;;;;;;-145.06;0.00;60892.56;6091068;22;20358;-93
2023/09/05 09:13:15;;;;;;;;;;;;;;;-145.06;0.00;60892.56;6091210;22;19907;-92
2023/09/05 09:15:54;;;;;;;;;;;;;;;-145.06;0.00;60892.56;6090100;22;20322;-92
2023/09/05 09:18:34;;;;;;;;;;;;;;;-145.06;0.00;60892.56;6090403;22;19907;-93
2023/09/05 09:21:15;;;;;;;;;;;;;;;-145.06;0.00;60892.56;6090322;22;19906;-93
2023/09/05 09:23:58;;;;;;;;;;;;;;;-145.06;0.00;60892.56;6091581;22;19927;-93
2023/09/05 09:26:40;;;;;;;;;;;;;;;-145.06;0.00;60892.56;6091522;22;19911;-91
2023/09/05 09:29:19;;;;;;;;;;;;;;;-145.06;0.00;60892.56;6091621;22;19907;-93
2023/09/05 09:31:59;;;;;;;;;;;;;;;-145.06;0.00;60892.56;6091153;22;20434;-93
2023/09/05 09:34:40;;;;;;;;;;;;;;;-145.06;0.00;60892.56;6090759;22;19990;-92
2023/09/05 09:37:26;;;;;;;;;;;;;;;-145.06;0.00;60892.56;6091658;22;19907;-92
2023/09/05 09:40:05;;;;;;;;;;;;;;;-145.06;0.00;60892.56;6090951;22;19907;-92
2023/09/05 09:42:48;;;;;;;;;;;;;;;-145.06;0.00;60892.56;6091233;22;19907;-93
2023/09/05 09:45:27;;;;;;;;;;;;;;;-145.06;0.00;60892.56;6090839;22;19926;-93
2023/09/05 09:48:08;;;;;;;;;;;;;;;-145.06;0.00;60892.56;6091435;22;19911;-93
2023/09/05 09:50:48;;;;;;;;;;;;;;;-145.06;0.00;60892.56;6091067;22;20274;-92
2023/09/05 09:53:34;;;;;;;;;;;;;;;-145.06;0.00;60892.56;6090983;22;19907;-92
2023/09/05 09:56:15;;;;;;;;;;;;;;;-145.06;0.00;60892.56;6091465;22;19911;-93
2023/09/05 09:58:56;;;;;;;;;;;;;;;-145.06;0.00;60892.56;6090900;22;19907;-93
2023/09/05 10:01:35;;;;;;;;;;;;;;;-145.06;0.00;60892.56;6090968;22;19907;-94
2023/09/05 10:04:16;;;;;;;;;;;;;;;-145.06;0.00;60892.56;6091264;22;19907;-92
2023/09/05 10:06:58;;;;;;;;;;;;;;;-145.06;0.00;60892.56;6091244;22;20222;-94
2023/09/05 10:09:39;;;;;;;;;;;;;;;-145.06;0.00;60892.56;6091378;22;19907;-92
2023/09/05 10:12:21;;;;;;;;;;;;;;;-145.06;0.00;60892.56;6091542;22;19951;-92
2023/09/05 10:15:02;;;;;;;;;;;;;;;-145.06;0.00;60892.56;6090692;22;19907;-93
2023/09/05 10:17:42;;;;;;;;;;;;;;;-145.06;0.00;60892.56;6091498;22;19911;-94
2023/09/05 10:20:21;;;;;;;;;;;;;;;-145.06;0.00;60892.56;6090708;22;19915;-94
2023/09/05 10:23:05;;;;;;;;;;;;;;;-145.06;0.00;60892.56;6091092;22;19931;-93
2023/09/05 10:25:45;;;;;;;;;;;;;;;-145.06;0.00;60892.56;6091393;22;19974;-93
2023/09/05 10:28:27;;;;;;;;;;;;;;;-145.06;0.00;60892.56;6091401;22;19907;-92
2023/09/05 10:31:12;;;;;;;;;;;;;;;-145.06;0.00;60892.56;6091201;22;20320;-94
2023/09/05 10:33:52;;;;;;;;;;;;;;;-145.06;0.00;60892.56;6091344;22;19911;-93
2023/09/05 10:36:41;;;;;;;;;;;;;;;-145.06;0.00;60892.56;6090826;22;19911;-93
2023/09/05 10:39:24;;;;;;;;;;;;;;;-145.06;0.00;60892.56;6091471;22;20227;-93
2023/09/05 10:42:06;;;;;;;;;;;;;;;27.00;0.00;60892.56;6091115;22;19907;-94
2023/09/05 10:44:48;;;;;;;;;;;;;;;27.09;0.00;93348.00;6091567;22;20222;-92
2023/09/05 10:50:57;;;;;;;;;;;;;;;27.31;0.00;60892.56;6103885;22;19907;-93
2023/09/05 10:53:48;;;;;;;;;;;;;;;27.45;0.00;84510.56;6092402;22;19907;-93
2023/09/05 10:56:39;;;;;;;;;;;;;;;-145.06;0.00;60892.56;6092384;22;20210;-93
2023/09/05 10:59:29;;;;;;;;;;;;;;;-145.06;0.00;60892.56;6093154;22;19906;-92
2023/09/05 11:02:09;;;;;;;;;;;;;;;-145.06;0.00;60892.56;6092922;22;19907;-93
2023/09/05 11:04:55;;;;;;;;;;;;;;;-145.06;0.00;60892.56;6092339;22;20207;-93
2023/09/05 11:07:42;;;;;;;;;;;;;;;-145.06;0.00;60892.56;6091880;22;19911;-94
2023/09/05 11:10:26;;;;;;;;;;;;;;;-145.06;0.00;60892.56;6092034;22;19907;-93
2023/09/05 11:13:10;;;;;;;;;;;;;;;-145.06;0.00;60892.56;6093059;22;19907;-93
2023/09/05 11:15:57;;;;;;;;;;;;;;;-145.06;0.00;60892.56;6091969;22;19938;-92
2023/09/05 11:18:43;;;;;;;;;;;;;;;-145.06;0.00;60892.56;6092011;22;19907;-93
2023/09/05 11:21:24;;;;;;;;;;;;;;;-145.06;0.00;60892.56;6091905;22;19911;-92
2023/09/05 11:24:03;;;;;;;;;;;;;;;-145.06;0.00;60892.56;6092408;22;19907;-93
2023/09/05 11:26:42;;;;;;;;;;;;;;;-145.06;0.00;60892.56;6091897;22;19911;-94
2023/09/05 11:29:22;;;;;;;;;;;;;;;-145.06;0.00;60892.56;6092662;22;19911;-92
2023/09/05 11:32:06;;;;;;;;;;;;;;;-145.06;0.00;60892.56;6092226;22;20333;-94
2023/09/05 11:34:48;;;;;;;;;;;;;;;-145.06;0.00;60892.56;6092508;22;19907;-93
2023/09/05 11:37:28;;;;;;;;;;;;;;;-145.06;0.00;60892.56;6091621;22;19907;-93
2023/09/05 11:40:14;;;;;;;;;;;;;;;-145.06;0.00;60892.56;6092012;22;19906;-93
2023/09/05 11:43:04;;;;;;;;;;;;;;;-145.06;0.00;60892.56;6091807;22;19907;-92
2023/09/05 11:45:46;;;;;;;;;;;;;;;-145.06;0.00;60892.56;6091744;22;19907;-93
2023/09/05 11:48:28;;;;;;;;;;;;;;;-145.06;0.00;60892.56;6090389;22;19907;-93
2023/09/05 11:51:07;;;;;;;;;;;;;;;-145.06;0.00;60892.56;6091581;22;19906;-92
2023/09/05 11:53:48;;;;;;;;;;;;;;;-145.06;0.00;60892.56;6091342;22;19946;-93
2023/09/05 11:56:27;;;;;;;;;;;;;;;-145.06;0.00;60892.56;6092101;22;20298;-92
2023/09/05 11:59:09;;;;;;;;;;;;;;;-145.06;0.00;60892.56;6091611;22;19907;-93
2023/09/05 12:01:48;;;;;;;;;;;;;;;-145.06;0.00;60892.56;6091884;22;19926;-94
2023/09/05 12:04:32;;;;;;;;;;;;;;;-145.06;0.00;60892.56;6103250;22;19907;-94
2023/09/05 12:07:11;;;;;;;;;;;;;;;-145.06;0.00;60892.56;6091626;22;19915;-93
2023/09/05 12:09:53;;;;;;;;;;;;;;;-145.06;0.00;60892.56;6091481;22;19907;-93
2023/09/05 12:12:34;;;;;;;;;;;;;;;-145.06;0.00;60892.56;6091760;22;19907;-93
2023/09/05 12:15:17;;;;;;;;;;;;;;;-145.06;0.00;60892.56;6091559;22;19906;-94
2023/09/05 12:18:05;;;;;;;;;;;;;;;-145.06;0.00;60892.56;6091940;22;19907;-93
2023/09/05 12:20:54;;;;;;;;;;;;;;;-145.06;0.00;60892.56;6091323;22;19907;-92
2023/09/05 12:23:33;;;;;;;;;;;;;;;-145.06;0.00;60892.56;6091037;22;19906;-93
2023/09/05 12:26:12;;;;;;;;;;;;;;;-145.06;0.00;60892.56;6091794;22;19926;-94
2023/09/05 12:28:52;;;;;;;;;;;;;;;-145.06;0.00;60892.56;6091008;22;19942;-93
2023/09/05 12:31:32;;;;;;;;;;;;;;;-145.06;0.00;60892.56;6091714;22;19977;-94
2023/09/05 12:34:21;;;;;;;;;;;;;;;-145.06;0.00;60892.56;6091666;22;19946;-94
2023/09/05 12:37:01;;;;;;;;;;;;;;;-145.06;0.00;60892.56;6091351;22;19907;-93
2023/09/05 12:39:47;;;;;;;;;;;;;;;-145.06;0.00;60892.56;6091390;22;19907;-93
2023/09/05 12:42:28;;;;;;;;;;;;;;;-145.06;0.00;60892.56;6090853;22;20222;-93
2023/09/05 12:45:07;;;;;;;;;;;;;;;-145.06;0.00;60892.56;6090522;22;20321;-93
2023/09/05 12:47:51;;;;;;;;;;;;;;;-145.06;0.00;60892.56;6090918;22;20329;-93
2023/09/05 12:50:32;;;;;;;;;;;;;;;-145.06;0.00;60892.56;6091158;22;19907;-94
2023/09/05 12:53:34;;;;;;;;;;;;;;;-145.06;0.00;60892.56;6091143;22;19911;-93
2023/09/05 12:56:33;;;;;;;;;;;;;;;-145.06;0.00;60892.56;6091041;22;19910;-93
2023/09/05 12:59:25;;;;;;;;;;;;;;;;;;;;;
2023/09/05 13:02:12;;;;;;;;;;;;;;;-145.06;0.00;60892.56;6105628;22;19906;-93
2023/09/05 13:04:56;;;;;;;;;;;;;;;-145.06;0.00;60892.56;6093904;22;20210;-93
2023/09/05 13:07:35;;;;;;;;;;;;;;;-145.06;0.00;60892.56;6092788;22;19910;-93
2023/09/05 13:10:14;;;;;;;;;;;;;;;-145.06;0.00;60892.56;6090268;22;19907;-94
2023/09/05 13:12:55;;;;;;;;;;;;;;;-145.06;0.00;60892.56;6091237;22;19907;-93
2023/09/05 13:15:35;;;;;;;;;;;;;;;-145.06;0.00;60892.56;6090976;22;19911;-93
2023/09/05 13:18:22;;;;;;;;;;;;;;;-145.06;0.00;60892.56;6090492;22;19907;-92
2023/09/05 13:21:24;;;;;;;;;;;;;;;;;;;;;
2023/09/05 13:24:06;;;;;;;;;;;;;;;-145.06;0.00;60892.56;6086863;22;19934;-93
2023/09/05 13:57:09;;;;;;;;;;;;;;;-145.06;0.00;60892.56;6088585;22;19927;-91
2023/09/05 15:38:41;;;;;;;;;;;;;;;-145.06;0.00;60892.56;6041188;23;20330;-92
2023/09/05 15:58:40;;;;;;;;;;;;;;;-145.06;0.00;60892.56;5981625;23;20232;-91
2023/09/05 16:01:19;;;;;;;;;;;;;;;-145.06;0.00;60892.56;6005582;23;19911;-90
2023/09/05 16:03:58;;;;;;;;;;;;;;;-145.06;0.00;60892.56;6057605;22;19907;-91
2023/09/05 16:06:37;;;;;;;;;;;;;;;-145.06;0.00;60892.56;6058330;22;19939;-90
2023/09/05 16:09:20;;;;;;;;;;;;;;;-145.06;0.00;60892.56;6058926;22;19915;-91
2023/09/05 16:11:59;;;;;;;;;;;;;;;-145.06;0.00;60892.56;6058234;22;19907;-90
2023/09/05 16:14:42;;;;;;;;;;;;;;;-145.06;0.00;60892.56;6058964;22;19971;-91
2023/09/05 16:17:21;;;;;;;;;;;;;;;-145.06;0.00;60892.56;6070965;22;19933;-91
2023/09/05 16:20:00;;;;;;;;;;;;;;;-145.06;0.00;60892.56;6059114;22;20426;-92